TCP weather

Taba International Airport
Taba, North Sinai Governorate, Egypt

Public forecast

Using degrees Celsius for public forecast. Weather courtesy of forecast.io.

METAR (pilot weather report)

Report is more than 6 hours old.

Retrieved 2018/02/10 18:00 UTC (1 year ago):

HETB 101800Z NI

TAF (pilot weather forecast)

Forecast is more than 12 hours old.

Retrieved 2019/04/21 00:00 UTC (1 day ago):

TAF HETB 212300Z 2200/2306 34014KT CAVOK